sensor_id;sensor_type;location;lat;lon;timestamp;pressure;altitude;pressure_sealevel;temperature;humidity
59873;BME280;50750;51.636;4.948;2023-05-16T00:00:26;102126.76;;;18.45;60.72
59873;BME280;50750;51.636;4.948;2023-05-16T00:03:13;102127.82;;;18.45;60.63
59873;BME280;50750;51.636;4.948;2023-05-16T00:05:40;102135.59;;;18.46;60.70
59873;BME280;50750;51.636;4.948;2023-05-16T00:08:07;102137.36;;;18.46;60.72
59873;BME280;50750;51.636;4.948;2023-05-16T00:10:33;102141.27;;;18.46;60.54
59873;BME280;50750;51.636;4.948;2023-05-16T00:13:00;102141.45;;;18.46;60.65
59873;BME280;50750;51.636;4.948;2023-05-16T00:15:27;102142.68;;;18.46;60.68
59873;BME280;50750;51.636;4.948;2023-05-16T00:17:55;102142.86;;;18.46;60.76
59873;BME280;50750;51.636;4.948;2023-05-16T00:20:25;102142.17;;;18.46;60.55
59873;BME280;50750;51.636;4.948;2023-05-16T00:22:53;102139.52;;;18.45;60.67
59873;BME280;50750;51.636;4.948;2023-05-16T00:25:20;102139.88;;;18.45;60.68
59873;BME280;50750;51.636;4.948;2023-05-16T00:27:46;102140.61;;;18.44;60.46
59873;BME280;50750;51.636;4.948;2023-05-16T00:30:13;102138.50;;;18.44;60.72
59873;BME280;50750;51.636;4.948;2023-05-16T00:32:39;102139.96;;;18.43;60.56
59873;BME280;50750;51.636;4.948;2023-05-16T00:35:06;102135.56;;;18.42;60.68
59873;BME280;50750;51.636;4.948;2023-05-16T00:37:36;102134.58;;;18.41;60.59
59873;BME280;50750;51.636;4.948;2023-05-16T00:40:04;102131.57;;;18.41;60.61
59873;BME280;50750;51.636;4.948;2023-05-16T00:42:31;102135.13;;;18.40;60.55
59873;BME280;50750;51.636;4.948;2023-05-16T00:44:57;102135.67;;;18.40;60.70
59873;BME280;50750;51.636;4.948;2023-05-16T00:47:24;102140.83;;;18.39;60.63
59873;BME280;50750;51.636;4.948;2023-05-16T00:49:51;102137.69;;;18.39;60.49
59873;BME280;50750;51.636;4.948;2023-05-16T00:52:17;102139.33;;;18.37;60.56
59873;BME280;50750;51.636;4.948;2023-05-16T00:54:44;102140.96;;;18.36;60.70
59873;BME280;50750;51.636;4.948;2023-05-16T00:57:10;102143.13;;;18.36;60.73
59873;BME280;50750;51.636;4.948;2023-05-16T00:59:37;102140.67;;;18.35;60.65
59873;BME280;50750;51.636;4.948;2023-05-16T01:02:04;102141.93;;;18.34;60.69
59873;BME280;50750;51.636;4.948;2023-05-16T01:04:32;102143.94;;;18.33;60.53
59873;BME280;50750;51.636;4.948;2023-05-16T01:06:59;102143.45;;;18.32;60.76
59873;BME280;50750;51.636;4.948;2023-05-16T01:09:27;102144.87;;;18.32;60.72
59873;BME280;50750;51.636;4.948;2023-05-16T01:14:59;102143.54;;;18.30;60.68
59873;BME280;50750;51.636;4.948;2023-05-16T01:23:16;102147.21;;;18.27;60.68
59873;BME280;50750;51.636;4.948;2023-05-16T01:28:21;102143.19;;;18.25;60.82
59873;BME280;50750;51.636;4.948;2023-05-16T01:30:49;102142.17;;;18.24;60.84
59873;BME280;50750;51.636;4.948;2023-05-16T01:33:16;102142.02;;;18.24;60.89
59873;BME280;50750;51.636;4.948;2023-05-16T01:35:50;102145.94;;;18.24;60.84
59873;BME280;50750;51.636;4.948;2023-05-16T01:38:31;102142.90;;;18.24;60.83
59873;BME280;50750;51.636;4.948;2023-05-16T01:41:16;102146.23;;;18.25;60.95
59873;BME280;50750;51.636;4.948;2023-05-16T01:43:48;102145.51;;;18.25;61.00
59873;BME280;50750;51.636;4.948;2023-05-16T01:46:25;102148.30;;;18.26;60.92
59873;BME280;50750;51.636;4.948;2023-05-16T01:49:14;102148.81;;;18.27;60.76
59873;BME280;50750;51.636;4.948;2023-05-16T01:51:51;102151.11;;;18.27;60.75
59873;BME280;50750;51.636;4.948;2023-05-16T01:54:20;102153.07;;;18.27;60.62
59873;BME280;50750;51.636;4.948;2023-05-16T01:56:53;102154.63;;;18.27;60.82
59873;BME280;50750;51.636;4.948;2023-05-16T01:59:21;102156.60;;;18.27;60.75
59873;BME280;50750;51.636;4.948;2023-05-16T02:01:48;102156.61;;;18.27;60.62
59873;BME280;50750;51.636;4.948;2023-05-16T02:04:18;102157.85;;;18.27;60.73
59873;BME280;50750;51.636;4.948;2023-05-16T02:06:44;102154.14;;;18.27;60.65
59873;BME280;50750;51.636;4.948;2023-05-16T02:09:11;102160.19;;;18.26;60.59
59873;BME280;50750;51.636;4.948;2023-05-16T02:11:37;102163.04;;;18.25;60.66
59873;BME280;50750;51.636;4.948;2023-05-16T02:14:04;102167.67;;;18.25;60.73
59873;BME280;50750;51.636;4.948;2023-05-16T02:16:30;102168.58;;;18.25;60.64
59873;BME280;50750;51.636;4.948;2023-05-16T02:18:57;102168.61;;;18.24;60.69
59873;BME280;50750;51.636;4.948;2023-05-16T02:21:24;102170.45;;;18.22;60.63
59873;BME280;50750;51.636;4.948;2023-05-16T02:23:50;102168.52;;;18.22;60.55
59873;BME280;50750;51.636;4.948;2023-05-16T02:26:17;102169.25;;;18.21;60.56
59873;BME280;50750;51.636;4.948;2023-05-16T02:28:43;102168.75;;;18.20;60.61
59873;BME280;50750;51.636;4.948;2023-05-16T02:31:10;102174.83;;;18.19;60.81
59873;BME280;50750;51.636;4.948;2023-05-16T02:33:37;102173.42;;;18.19;60.65
59873;BME280;50750;51.636;4.948;2023-05-16T02:36:03;102173.80;;;18.18;60.69
59873;BME280;50750;51.636;4.948;2023-05-16T02:38:30;102173.52;;;18.17;60.63
59873;BME280;50750;51.636;4.948;2023-05-16T02:40:56;102176.39;;;18.16;60.68
59873;BME280;50750;51.636;4.948;2023-05-16T02:43:23;102178.02;;;18.15;60.98
59873;BME280;50750;51.636;4.948;2023-05-16T02:45:49;102174.88;;;18.14;60.81
59873;BME280;50750;51.636;4.948;2023-05-16T02:48:16;102175.60;;;18.13;60.69
59873;BME280;50750;51.636;4.948;2023-05-16T02:50:42;102179.33;;;18.13;60.88
59873;BME280;50750;51.636;4.948;2023-05-16T02:53:09;102182.94;;;18.12;60.78
59873;BME280;50750;51.636;4.948;2023-05-16T02:55:36;102185.45;;;18.11;60.74
59873;BME280;50750;51.636;4.948;2023-05-16T02:58:02;102187.41;;;18.10;60.89
59873;BME280;50750;51.636;4.948;2023-05-16T03:00:29;102188.15;;;18.10;60.76
59873;BME280;50750;51.636;4.948;2023-05-16T03:02:56;102191.90;;;18.09;60.82
59873;BME280;50750;51.636;4.948;2023-05-16T03:05:23;102191.58;;;18.08;60.93
59873;BME280;50750;51.636;4.948;2023-05-16T03:07:49;102194.28;;;18.07;60.90
59873;BME280;50750;51.636;4.948;2023-05-16T03:10:16;102196.59;;;18.07;60.81
59873;BME280;50750;51.636;4.948;2023-05-16T03:12:43;102198.19;;;18.07;60.72
59873;BME280;50750;51.636;4.948;2023-05-16T03:15:09;102200.84;;;18.07;60.83
59873;BME280;50750;51.636;4.948;2023-05-16T03:17:36;102202.42;;;18.08;60.75
59873;BME280;50750;51.636;4.948;2023-05-16T03:20:03;102202.93;;;18.08;60.65
59873;BME280;50750;51.636;4.948;2023-05-16T03:22:30;102204.87;;;18.08;60.67
59873;BME280;50750;51.636;4.948;2023-05-16T03:24:57;102202.74;;;18.08;60.66
59873;BME280;50750;51.636;4.948;2023-05-16T03:27:25;102205.21;;;18.09;60.63
59873;BME280;50750;51.636;4.948;2023-05-16T03:29:53;102204.64;;;18.09;60.87
59873;BME280;50750;51.636;4.948;2023-05-16T03:32:19;102203.23;;;18.10;60.68
59873;BME280;50750;51.636;4.948;2023-05-16T03:34:49;102210.13;;;18.10;60.70
59873;BME280;50750;51.636;4.948;2023-05-16T03:37:15;102204.83;;;18.09;60.59
59873;BME280;50750;51.636;4.948;2023-05-16T03:39:41;102206.08;;;18.09;60.54
59873;BME280;50750;51.636;4.948;2023-05-16T03:42:08;102209.30;;;18.09;60.62
59873;BME280;50750;51.636;4.948;2023-05-16T03:44:35;102212.52;;;18.08;60.51
59873;BME280;50750;51.636;4.948;2023-05-16T03:47:01;102213.06;;;18.07;60.50
59873;BME280;50750;51.636;4.948;2023-05-16T03:49:28;102215.20;;;18.07;60.63
59873;BME280;50750;51.636;4.948;2023-05-16T03:51:54;102211.72;;;18.06;60.73
59873;BME280;50750;51.636;4.948;2023-05-16T03:54:21;102211.56;;;18.05;60.57
59873;BME280;50750;51.636;4.948;2023-05-16T03:56:48;102216.02;;;18.04;60.68
59873;BME280;50750;51.636;4.948;2023-05-16T03:59:15;102216.40;;;18.04;60.59
59873;BME280;50750;51.636;4.948;2023-05-16T04:01:42;102218.74;;;18.03;60.79
59873;BME280;50750;51.636;4.948;2023-05-16T04:04:08;102218.42;;;18.02;60.76
59873;BME280;50750;51.636;4.948;2023-05-16T04:06:35;102222.71;;;18.01;60.60
59873;BME280;50750;51.636;4.948;2023-05-16T04:09:01;102226.30;;;18.00;60.70
59873;BME280;50750;51.636;4.948;2023-05-16T04:11:28;102228.44;;;18.00;60.73
59873;BME280;50750;51.636;4.948;2023-05-16T04:13:54;102232.73;;;17.99;60.69
59873;BME280;50750;51.636;4.948;2023-05-16T04:16:22;102235.59;;;17.99;60.76
59873;BME280;50750;51.636;4.948;2023-05-16T04:18:48;102238.10;;;17.98;60.68
59873;BME280;50750;51.636;4.948;2023-05-16T04:21:15;102241.85;;;17.97;60.76
59873;BME280;50750;51.636;4.948;2023-05-16T04:23:41;102243.64;;;17.96;60.85
59873;BME280;50750;51.636;4.948;2023-05-16T04:26:08;102244.55;;;17.96;60.64
59873;BME280;50750;51.636;4.948;2023-05-16T04:28:35;102244.26;;;17.95;60.85
59873;BME280;50750;51.636;4.948;2023-05-16T04:31:01;102248.69;;;17.94;60.66
59873;BME280;50750;51.636;4.948;2023-05-16T04:33:28;102252.80;;;17.93;60.79
59873;BME280;50750;51.636;4.948;2023-05-16T04:35:54;102254.97;;;17.93;60.76
59873;BME280;50750;51.636;4.948;2023-05-16T04:38:23;102258.16;;;17.92;60.88
59873;BME280;50750;51.636;4.948;2023-05-16T04:40:50;102261.38;;;17.92;60.85
59873;BME280;50750;51.636;4.948;2023-05-16T04:43:18;102259.96;;;17.91;60.96
59873;BME280;50750;51.636;4.948;2023-05-16T04:45:45;102261.45;;;17.90;60.83
59873;BME280;50750;51.636;4.948;2023-05-16T04:48:12;102263.40;;;17.90;60.84
59873;BME280;50750;51.636;4.948;2023-05-16T04:50:38;102262.68;;;17.90;60.95
59873;BME280;50750;51.636;4.948;2023-05-16T04:53:05;102262.12;;;17.91;60.89
59873;BME280;50750;51.636;4.948;2023-05-16T04:55:32;102264.42;;;17.91;60.95
59873;BME280;50750;51.636;4.948;2023-05-16T04:57:58;102262.43;;;17.92;60.89
59873;BME280;50750;51.636;4.948;2023-05-16T05:00:25;102265.44;;;17.92;60.82
59873;BME280;50750;51.636;4.948;2023-05-16T05:02:52;102269.13;;;17.93;60.77
59873;BME280;50750;51.636;4.948;2023-05-16T05:05:18;102269.44;;;17.94;60.72
59873;BME280;50750;51.636;4.948;2023-05-16T05:07:45;102276.00;;;17.94;60.80
59873;BME280;50750;51.636;4.948;2023-05-16T05:10:12;102280.25;;;17.94;60.87
59873;BME280;50750;51.636;4.948;2023-05-16T05:12:38;102281.31;;;17.94;60.65
59873;BME280;50750;51.636;4.948;2023-05-16T05:15:05;102279.89;;;17.94;60.73
59873;BME280;50750;51.636;4.948;2023-05-16T05:17:32;102283.27;;;17.94;60.81
59873;BME280;50750;51.636;4.948;2023-05-16T05:19:59;102282.54;;;17.94;60.57
59873;BME280;50750;51.636;4.948;2023-05-16T05:22:25;102279.89;;;17.94;60.73
59873;BME280;50750;51.636;4.948;2023-05-16T05:24:54;102279.58;;;17.93;60.73
59873;BME280;50750;51.636;4.948;2023-05-16T05:27:21;102277.29;;;17.93;60.76
59873;BME280;50750;51.636;4.948;2023-05-16T05:29:47;102284.03;;;17.93;60.72
59873;BME280;50750;51.636;4.948;2023-05-16T05:32:14;102284.76;;;17.92;60.74
59873;BME280;50750;51.636;4.948;2023-05-16T05:34:40;102288.31;;;17.92;60.83
59873;BME280;50750;51.636;4.948;2023-05-16T05:37:07;102288.69;;;17.91;60.87
59873;BME280;50750;51.636;4.948;2023-05-16T05:39:33;102287.48;;;17.90;60.81
59873;BME280;50750;51.636;4.948;2023-05-16T05:42:00;102289.44;;;17.90;60.69
59873;BME280;50750;51.636;4.948;2023-05-16T05:44:29;102296.19;;;17.90;60.84
59873;BME280;50750;51.636;4.948;2023-05-16T05:46:56;102298.68;;;17.89;60.56
59873;BME280;50750;51.636;4.948;2023-05-16T05:49:24;102299.04;;;17.89;60.76
59873;BME280;50750;51.636;4.948;2023-05-16T05:51:51;102298.53;;;17.88;60.72
59873;BME280;50750;51.636;4.948;2023-05-16T05:54:18;102297.77;;;17.85;59.31
59873;BME280;50750;51.636;4.948;2023-05-16T05:56:45;102304.02;;;17.84;59.55
59873;BME280;50750;51.636;4.948;2023-05-16T05:59:15;102302.11;;;17.82;59.76
59873;BME280;50750;51.636;4.948;2023-05-16T06:01:42;102303.02;;;17.82;59.80
59873;BME280;50750;51.636;4.948;2023-05-16T06:04:10;102309.27;;;17.81;59.99
59873;BME280;50750;51.636;4.948;2023-05-16T06:06:39;102312.11;;;17.80;60.02
59873;BME280;50750;51.636;4.948;2023-05-16T06:09:06;102316.57;;;17.80;60.07
59873;BME280;50750;51.636;4.948;2023-05-16T06:11:32;102319.23;;;17.80;60.18
59873;BME280;50750;51.636;4.948;2023-05-16T06:13:59;102324.05;;;17.79;60.28
59873;BME280;50750;51.636;4.948;2023-05-16T06:16:25;102328.30;;;17.79;60.38
59873;BME280;50750;51.636;4.948;2023-05-16T06:18:52;102325.29;;;17.78;60.27
59873;BME280;50750;51.636;4.948;2023-05-16T06:21:18;102330.43;;;17.77;60.40
59873;BME280;50750;51.636;4.948;2023-05-16T06:23:45;102328.00;;;17.77;60.24
59873;BME280;50750;51.636;4.948;2023-05-16T06:26:12;102333.86;;;17.76;60.38
59873;BME280;50750;51.636;4.948;2023-05-16T06:28:38;102336.36;;;17.75;60.43
59873;BME280;50750;51.636;4.948;2023-05-16T06:31:05;102336.91;;;17.75;60.38
59873;BME280;50750;51.636;4.948;2023-05-16T06:33:31;102335.87;;;17.74;60.42
59873;BME280;50750;51.636;4.948;2023-05-16T06:35:59;102333.95;;;17.74;60.59
59873;BME280;50750;51.636;4.948;2023-05-16T06:38:25;102339.10;;;17.74;60.51
59873;BME280;50750;51.636;4.948;2023-05-16T06:40:52;102336.63;;;17.74;60.55
59873;BME280;50750;51.636;4.948;2023-05-16T06:43:19;102335.57;;;17.73;60.62
59873;BME280;50750;51.636;4.948;2023-05-16T06:45:45;102334.70;;;17.73;60.55
59873;BME280;50750;51.636;4.948;2023-05-16T06:48:13;102332.75;;;17.73;60.61
59873;BME280;50750;51.636;4.948;2023-05-16T06:50:47;102340.02;;;17.72;60.60
59873;BME280;50750;51.636;4.948;2023-05-16T06:53:13;102340.39;;;17.72;60.52
59873;BME280;50750;51.636;4.948;2023-05-16T06:55:40;102344.13;;;17.72;60.64
59873;BME280;50750;51.636;4.948;2023-05-16T06:58:06;102341.50;;;17.71;60.64
59873;BME280;50750;51.636;4.948;2023-05-16T07:00:33;102341.52;;;17.71;60.44
59873;BME280;50750;51.636;4.948;2023-05-16T07:02:59;102343.11;;;17.70;60.66
59873;BME280;50750;51.636;4.948;2023-05-16T07:05:26;102343.82;;;17.70;60.48
59873;BME280;50750;51.636;4.948;2023-05-16T07:07:52;102340.99;;;17.70;60.53
59873;BME280;50750;51.636;4.948;2023-05-16T07:10:19;102346.48;;;17.70;60.73
59873;BME280;50750;51.636;4.948;2023-05-16T07:12:46;102345.27;;;17.70;60.56
59873;BME280;50750;51.636;4.948;2023-05-16T07:15:13;102346.69;;;17.69;60.42
59873;BME280;50750;51.636;4.948;2023-05-16T07:17:40;102347.39;;;17.70;60.53
59873;BME280;50750;51.636;4.948;2023-05-16T07:20:07;102351.30;;;17.69;60.42
59873;BME280;50750;51.636;4.948;2023-05-16T07:22:39;102347.92;;;17.69;60.51
59873;BME280;50750;51.636;4.948;2023-05-16T07:25:06;102349.72;;;17.69;60.50
59873;BME280;50750;51.636;4.948;2023-05-16T07:27:41;102354.32;;;17.69;60.46
59873;BME280;50750;51.636;4.948;2023-05-16T07:30:11;102354.52;;;17.69;60.63
59873;BME280;50750;51.636;4.948;2023-05-16T07:32:41;102350.80;;;17.69;60.60
59873;BME280;50750;51.636;4.948;2023-05-16T07:35:09;102350.61;;;17.69;60.73
59873;BME280;50750;51.636;4.948;2023-05-16T07:37:36;102353.27;;;17.69;60.57
59873;BME280;50750;51.636;4.948;2023-05-16T07:40:03;102351.11;;;17.70;60.66
59873;BME280;50750;51.636;4.948;2023-05-16T07:42:30;102352.89;;;17.69;60.62
59873;BME280;50750;51.636;4.948;2023-05-16T07:44:57;102351.30;;;17.69;60.58
59873;BME280;50750;51.636;4.948;2023-05-16T07:47:23;102353.23;;;17.70;60.71
59873;BME280;50750;51.636;4.948;2023-05-16T07:49:49;102355.02;;;17.69;60.68
59873;BME280;50750;51.636;4.948;2023-05-16T07:52:16;102361.20;;;17.69;60.63
59873;BME280;50750;51.636;4.948;2023-05-16T07:54:45;102362.98;;;17.70;60.55
59873;BME280;50750;51.636;4.948;2023-05-16T07:57:12;102360.67;;;17.69;60.64
59873;BME280;50750;51.636;4.948;2023-05-16T07:59:40;102363.36;;;17.69;60.60
59873;BME280;50750;51.636;4.948;2023-05-16T08:02:07;102361.77;;;17.68;60.42
59873;BME280;50750;51.636;4.948;2023-05-16T08:04:34;102358.98;;;17.68;60.59
59873;BME280;50750;51.636;4.948;2023-05-16T08:07:01;102358.25;;;17.68;60.64
59873;BME280;50750;51.636;4.948;2023-05-16T08:09:27;102355.60;;;17.68;60.70
59873;BME280;50750;51.636;4.948;2023-05-16T08:11:54;102350.98;;;17.68;60.63
59873;BME280;50750;51.636;4.948;2023-05-16T08:14:20;102346.02;;;17.69;60.69
59873;BME280;50750;51.636;4.948;2023-05-16T08:16:47;102345.31;;;17.68;60.81
59873;BME280;50750;51.636;4.948;2023-05-16T08:19:13;102352.56;;;17.69;60.57
59873;BME280;50750;51.636;4.948;2023-05-16T08:21:40;102358.06;;;17.69;60.66
59873;BME280;50750;51.636;4.948;2023-05-16T08:24:06;102356.27;;;17.69;60.60
59873;BME280;50750;51.636;4.948;2023-05-16T08:26:33;102360.00;;;17.69;60.76
59873;BME280;50750;51.636;4.948;2023-05-16T08:29:00;102364.23;;;17.69;60.63
59873;BME280;50750;51.636;4.948;2023-05-16T08:31:27;102361.02;;;17.70;60.53
59873;BME280;50750;51.636;4.948;2023-05-16T08:33:53;102361.55;;;17.70;60.73
59873;BME280;50750;51.636;4.948;2023-05-16T08:36:20;102357.27;;;17.70;60.62
59873;BME280;50750;51.636;4.948;2023-05-16T08:38:49;102359.06;;;17.70;60.65
59873;BME280;50750;51.636;4.948;2023-05-16T08:41:16;102361.36;;;17.70;60.64
59873;BME280;50750;51.636;4.948;2023-05-16T08:43:43;102361.00;;;17.71;60.64
59873;BME280;50750;51.636;4.948;2023-05-16T08:46:09;102359.05;;;17.70;60.54
59873;BME280;50750;51.636;4.948;2023-05-16T08:48:37;102353.20;;;17.71;60.59
59873;BME280;50750;51.636;4.948;2023-05-16T08:51:08;102352.14;;;17.71;60.51
59873;BME280;50750;51.636;4.948;2023-05-16T08:53:43;102356.55;;;17.71;60.56
59873;BME280;50750;51.636;4.948;2023-05-16T08:56:12;102358.66;;;17.72;60.56
59873;BME280;50750;51.636;4.948;2023-05-16T08:58:40;102360.77;;;17.72;60.49
59873;BME280;50750;51.636;4.948;2023-05-16T09:01:07;102365.73;;;17.72;60.27
59873;BME280;50750;51.636;4.948;2023-05-16T09:03:38;102364.66;;;17.72;60.43
59873;BME280;50750;51.636;4.948;2023-05-16T09:06:04;102362.50;;;17.73;60.40
59873;BME280;50750;51.636;4.948;2023-05-16T09:08:32;102364.46;;;17.73;60.32
59873;BME280;50750;51.636;4.948;2023-05-16T09:11:01;102360.02;;;17.73;60.35
59873;BME280;50750;51.636;4.948;2023-05-16T09:13:27;102358.98;;;17.72;60.17
59873;BME280;50750;51.636;4.948;2023-05-16T09:16:14;102361.64;;;17.72;60.34
59873;BME280;50750;51.636;4.948;2023-05-16T09:18:43;102360.73;;;17.73;60.19
59873;BME280;50750;51.636;4.948;2023-05-16T09:21:12;102365.86;;;17.73;60.30
59873;BME280;50750;51.636;4.948;2023-05-16T09:23:41;102365.51;;;17.73;60.21
59873;BME280;50750;51.636;4.948;2023-05-16T09:26:08;102366.73;;;17.74;60.17
59873;BME280;50750;51.636;4.948;2023-05-16T09:28:38;102363.89;;;17.74;60.02
59873;BME280;50750;51.636;4.948;2023-05-16T09:31:25;102361.05;;;17.74;59.78
59873;BME280;50750;51.636;4.948;2023-05-16T09:33:55;102368.66;;;17.74;59.90
59873;BME280;50750;51.636;4.948;2023-05-16T09:36:22;102374.83;;;17.75;60.13
59873;BME280;50750;51.636;4.948;2023-05-16T09:38:54;102376.95;;;17.75;59.96
59873;BME280;50750;51.636;4.948;2023-05-16T09:41:21;102377.64;;;17.75;59.97
59873;BME280;50750;51.636;4.948;2023-05-16T09:43:48;102377.63;;;17.76;59.70
59873;BME280;50750;51.636;4.948;2023-05-16T09:46:15;102376.75;;;17.76;59.76
59873;BME280;50750;51.636;4.948;2023-05-16T09:48:46;102376.04;;;17.76;59.66
59873;BME280;50750;51.636;4.948;2023-05-16T09:51:13;102376.20;;;17.77;59.70
59873;BME280;50750;51.636;4.948;2023-05-16T09:53:40;102380.25;;;17.77;59.64
59873;BME280;50750;51.636;4.948;2023-05-16T09:56:10;102379.88;;;17.78;59.66
59873;BME280;50750;51.636;4.948;2023-05-16T09:58:39;102372.06;;;17.78;59.73
59873;BME280;50750;51.636;4.948;2023-05-16T10:01:09;102370.45;;;17.78;59.69
59873;BME280;50750;51.636;4.948;2023-05-16T10:03:38;102372.58;;;17.78;59.52
59873;BME280;50750;51.636;4.948;2023-05-16T10:06:06;102377.57;;;17.79;59.50
59873;BME280;50750;51.636;4.948;2023-05-16T10:08:34;102377.71;;;17.78;59.64
59873;BME280;50750;51.636;4.948;2023-05-16T10:11:04;102374.35;;;17.78;59.57
59873;BME280;50750;51.636;4.948;2023-05-16T10:13:33;102371.35;;;17.78;59.58
59873;BME280;50750;51.636;4.948;2023-05-16T10:16:06;102373.84;;;17.79;59.40
59873;BME280;50750;51.636;4.948;2023-05-16T10:18:34;102375.05;;;17.79;59.40
59873;BME280;50750;51.636;4.948;2023-05-16T10:21:05;102376.85;;;17.79;59.45
59873;BME280;50750;51.636;4.948;2023-05-16T10:23:33;102373.80;;;17.80;59.32
59873;BME280;50750;51.636;4.948;2023-05-16T10:26:02;102368.50;;;17.79;59.49
59873;BME280;50750;51.636;4.948;2023-05-16T10:28:31;102374.14;;;17.80;59.30
59873;BME280;50750;51.636;4.948;2023-05-16T10:30:58;102377.48;;;17.81;59.28
59873;BME280;50750;51.636;4.948;2023-05-16T10:33:26;102377.31;;;17.81;59.36
59873;BME280;50750;51.636;4.948;2023-05-16T10:35:54;102378.53;;;17.81;59.30
59873;BME280;50750;51.636;4.948;2023-05-16T10:38:21;102376.94;;;17.82;59.01
59873;BME280;50750;51.636;4.948;2023-05-16T10:40:50;102375.48;;;17.82;59.10
59873;BME280;50750;51.636;4.948;2023-05-16T10:43:24;102371.74;;;17.82;58.95
59873;BME280;50750;51.636;4.948;2023-05-16T10:46:09;102370.16;;;17.82;59.07
59873;BME280;50750;51.636;4.948;2023-05-16T10:48:37;102375.45;;;17.83;58.94
59873;BME280;50750;51.636;4.948;2023-05-16T10:51:36;102376.16;;;17.83;58.92
59873;BME280;50750;51.636;4.948;2023-05-16T10:54:07;102371.71;;;17.84;58.85
59873;BME280;50750;51.636;4.948;2023-05-16T10:56:34;102366.02;;;17.84;58.94
59873;BME280;50750;51.636;4.948;2023-05-16T10:59:01;102373.27;;;17.84;58.84
59873;BME280;50750;51.636;4.948;2023-05-16T11:01:33;102372.17;;;17.85;58.88
59873;BME280;50750;51.636;4.948;2023-05-16T11:04:05;102375.86;;;17.86;58.80
59873;BME280;50750;51.636;4.948;2023-05-16T11:17:14;102380.80;;;17.87;58.39
59873;BME280;50750;51.636;4.948;2023-05-16T11:19:46;102377.43;;;17.87;58.33
59873;BME280;50750;51.636;4.948;2023-05-16T11:27:22;102378.11;;;17.88;58.38
59873;BME280;50750;51.636;4.948;2023-05-16T11:29:49;102381.81;;;17.88;58.44
59873;BME280;50750;51.636;4.948;2023-05-16T11:32:18;102380.56;;;17.88;58.44
59873;BME280;50750;51.636;4.948;2023-05-16T11:34:46;102380.38;;;17.89;58.61
59873;BME280;50750;51.636;4.948;2023-05-16T11:37:13;102383.38;;;17.90;58.59
59873;BME280;50750;51.636;4.948;2023-05-16T11:39:41;102380.87;;;17.90;58.60
59873;BME280;50750;51.636;4.948;2023-05-16T11:42:07;102383.52;;;17.91;58.56
59873;BME280;50750;51.636;4.948;2023-05-16T11:44:34;102379.77;;;17.91;58.63
59873;BME280;50750;51.636;4.948;2023-05-16T11:47:01;102377.47;;;17.91;58.87
59873;BME280;50750;51.636;4.948;2023-05-16T11:49:27;102378.87;;;17.92;58.92
59873;BME280;50750;51.636;4.948;2023-05-16T11:51:55;102384.17;;;17.92;58.87
59873;BME280;50750;51.636;4.948;2023-05-16T11:54:23;102380.09;;;17.92;58.88
59873;BME280;50750;51.636;4.948;2023-05-16T11:56:50;102378.50;;;17.92;58.96
59873;BME280;50750;51.636;4.948;2023-05-16T11:59:17;102381.50;;;17.93;59.01
59873;BME280;50750;51.636;4.948;2023-05-16T12:01:44;102386.08;;;17.93;58.85
59873;BME280;50750;51.636;4.948;2023-05-16T12:04:14;102391.04;;;17.93;59.10
59873;BME280;50750;51.636;4.948;2023-05-16T12:06:42;102391.17;;;17.94;59.20
59873;BME280;50750;51.636;4.948;2023-05-16T12:09:14;102393.84;;;17.94;59.02
59873;BME280;50750;51.636;4.948;2023-05-16T12:11:43;102392.56;;;17.95;59.11
59873;BME280;50750;51.636;4.948;2023-05-16T12:14:11;102391.49;;;17.95;58.98
59873;BME280;50750;51.636;4.948;2023-05-16T12:16:38;102390.93;;;17.96;58.85
59873;BME280;50750;51.636;4.948;2023-05-16T12:19:08;102395.38;;;17.96;59.08
59873;BME280;50750;51.636;4.948;2023-05-16T12:21:37;102400.28;;;17.97;59.10
59873;BME280;50750;51.636;4.948;2023-05-16T12:24:08;102397.45;;;17.97;59.03
59873;BME280;50750;51.636;4.948;2023-05-16T12:26:41;102394.08;;;17.97;58.99
59873;BME280;50750;51.636;4.948;2023-05-16T12:29:10;102392.84;;;17.98;59.09
59873;BME280;50750;51.636;4.948;2023-05-16T12:31:38;102395.11;;;17.98;59.00
59873;BME280;50750;51.636;4.948;2023-05-16T12:34:16;102397.39;;;17.99;58.94
59873;BME280;50750;51.636;4.948;2023-05-16T12:36:43;102391.02;;;17.99;59.01
59873;BME280;50750;51.636;4.948;2023-05-16T12:39:11;102398.42;;;18.00;59.12
59873;BME280;50750;51.636;4.948;2023-05-16T12:41:40;102398.06;;;18.00;59.20
59873;BME280;50750;51.636;4.948;2023-05-16T12:46:43;102402.48;;;18.00;59.04
59873;BME280;50750;51.636;4.948;2023-05-16T12:49:11;102399.09;;;18.01;59.23
59873;BME280;50750;51.636;4.948;2023-05-16T12:51:38;102398.72;;;18.01;59.06
59873;BME280;50750;51.636;4.948;2023-05-16T12:54:10;102391.61;;;18.02;59.11
59873;BME280;50750;51.636;4.948;2023-05-16T12:56:38;102393.17;;;18.02;59.08
59873;BME280;50750;51.636;4.948;2023-05-16T12:59:06;102389.63;;;18.03;59.01
59873;BME280;50750;51.636;4.948;2023-05-16T13:01:34;102388.17;;;18.04;58.99
59873;BME280;50750;51.636;4.948;2023-05-16T13:04:01;102386.19;;;18.04;58.99
59873;BME280;50750;51.636;4.948;2023-05-16T13:06:29;102388.64;;;18.05;58.68
59873;BME280;50750;51.636;4.948;2023-05-16T13:08:56;102392.83;;;18.07;58.85
59873;BME280;50750;51.636;4.948;2023-05-16T13:11:23;102389.08;;;18.07;58.83
59873;BME280;50750;51.636;4.948;2023-05-16T13:13:51;102387.77;;;18.09;59.04
59873;BME280;50750;51.636;4.948;2023-05-16T13:16:18;102393.23;;;18.10;59.03
59873;BME280;50750;51.636;4.948;2023-05-16T13:18:45;102391.42;;;18.12;58.96
59873;BME280;50750;51.636;4.948;2023-05-16T13:21:11;102387.63;;;18.13;58.98
59873;BME280;50750;51.636;4.948;2023-05-16T13:23:38;102387.61;;;18.14;59.04